createdAt,value
2017-11-20T00:00:30.094Z,92.22
2017-11-20T00:01:30.025Z,92.19
2017-11-20T00:02:30.021Z,92.35
2017-11-20T00:03:30.088Z,92.49
2017-11-20T00:04:30.100Z,91.73
2017-11-20T00:05:30.104Z,91.86
2017-11-20T00:06:30.022Z,91.79
2017-11-20T00:07:30.089Z,91.84
2017-11-20T00:08:30.022Z,92.08
2017-11-20T00:09:30.092Z,92.05
2017-11-20T00:10:30.094Z,91.95
2017-11-20T00:11:30.026Z,91.55
2017-11-20T00:12:30.106Z,91.57
2017-11-20T00:13:30.028Z,91.63
2017-11-20T00:14:30.097Z,91.76
2017-11-20T00:15:29.979Z,91.55
2017-11-20T00:16:30.084Z,91.71
2017-11-20T00:17:30.081Z,91.71
2017-11-20T00:18:29.998Z,91.86
2017-11-20T00:19:30.052Z,91.65
2017-11-20T00:20:30.082Z,91.76
2017-11-20T00:21:30.088Z,91.92
2017-11-20T00:22:30.047Z,92.19
2017-11-20T00:23:30.081Z,92.40
2017-11-20T00:24:30.027Z,92.43
2017-11-20T00:25:30.034Z,92.65
2017-11-20T00:26:29.983Z,92.78
2017-11-20T00:27:30.063Z,92.95
2017-11-20T00:28:30.042Z,92.84
2017-11-20T00:29:30.103Z,92.54
2017-11-20T00:30:30.042Z,92.24
2017-11-20T00:31:30.105Z,91.82
2017-11-20T00:32:30.105Z,91.95
2017-11-20T00:33:30.044Z,92.14
2017-11-20T00:34:30.047Z,91.90
2017-11-20T00:35:30.015Z,91.57
2017-11-20T00:36:30.037Z,91.79
2017-11-20T00:37:29.992Z,91.95
2017-11-20T00:38:30.102Z,92.05
2017-11-20T00:39:30.099Z,91.97
2017-11-20T00:40:30.064Z,92.01
2017-11-20T00:41:30.018Z,92.16
2017-11-20T00:42:30.096Z,92.27
2017-11-20T00:43:30.036Z,92.19
2017-11-20T00:44:30.018Z,92.43
2017-11-20T00:45:30.047Z,92.16
2017-11-20T00:46:30.115Z,92.08
2017-11-20T00:47:30.049Z,92.24
2017-11-20T00:48:30.118Z,92.24
2017-11-20T00:49:30.083Z,92.05
2017-11-20T00:50:30.052Z,92.08
2017-11-20T00:51:30.061Z,92.22
2017-11-20T00:52:30.117Z,91.97
2017-11-20T00:53:30.088Z,92.14
2017-11-20T00:54:30.117Z,91.55
2017-11-20T00:55:30.011Z,91.82
2017-11-20T00:56:30.011Z,91.95
2017-11-20T00:57:30.081Z,91.92
2017-11-20T00:58:29.989Z,91.65
2017-11-20T00:59:30.069Z,91.52
2017-11-20T01:00:30.011Z,91.44
2017-11-20T01:01:30.104Z,91.73
2017-11-20T01:02:30.106Z,91.86
2017-11-20T01:03:30.107Z,91.79
2017-11-20T01:04:30.083Z,91.38
2017-11-20T01:05:30.060Z,91.07
2017-11-20T01:06:30.067Z,91.01
2017-11-20T01:07:30.125Z,91.09
2017-11-20T01:08:30.088Z,91.36
2017-11-20T01:09:30.165Z,91.41
2017-11-20T01:10:30.062Z,91.55
2017-11-20T01:11:30.139Z,91.76
2017-11-20T01:12:30.068Z,91.82
2017-11-20T01:13:30.073Z,91.86
2017-11-20T01:14:30.129Z,91.73
2017-11-20T01:15:30.066Z,91.52
2017-11-20T01:16:30.133Z,91.36
2017-11-20T01:17:30.066Z,91.65
2017-11-20T01:18:30.132Z,91.55
2017-11-20T01:19:30.142Z,91.52
2017-11-20T01:20:30.067Z,91.57
2017-11-20T01:21:30.135Z,91.63
2017-11-20T01:22:30.157Z,91.57
2017-11-20T01:23:30.071Z,91.57
2017-11-20T01:24:30.139Z,91.55
2017-11-20T01:25:30.138Z,91.41
2017-11-20T01:26:30.137Z,91.36
2017-11-20T01:27:30.022Z,91.49
2017-11-20T01:28:30.079Z,91.52
2017-11-20T01:29:30.139Z,91.36
2017-11-20T01:30:30.140Z,91.38
2017-11-20T01:31:30.081Z,91.65
2017-11-20T01:32:30.144Z,91.73
2017-11-20T01:33:30.074Z,91.33
2017-11-20T01:34:30.077Z,91.38
2017-11-20T01:35:30.144Z,91.57
2017-11-20T01:36:30.105Z,91.44
2017-11-20T01:37:30.080Z,91.49
2017-11-20T01:38:30.152Z,91.57
2017-11-20T01:39:30.145Z,91.52
2017-11-20T01:40:30.083Z,90.98
2017-11-20T01:41:30.081Z,90.96
2017-11-20T01:42:30.150Z,91.01
2017-11-20T01:43:30.083Z,90.69
2017-11-20T01:44:30.148Z,90.66
2017-11-20T01:45:30.137Z,90.80
2017-11-20T01:46:30.118Z,90.80
2017-11-20T01:47:30.032Z,90.63
2017-11-20T01:48:30.143Z,90.61
2017-11-20T01:49:30.103Z,90.80
2017-11-20T01:50:30.052Z,90.85
2017-11-20T01:51:30.084Z,90.96
2017-11-20T01:52:30.041Z,91.01
2017-11-20T01:53:30.036Z,91.11
2017-11-20T01:54:30.124Z,90.58
2017-11-20T01:55:30.142Z,90.77
2017-11-20T01:56:30.143Z,90.96
2017-11-20T01:57:30.102Z,90.93
2017-11-20T01:58:30.154Z,91.01
2017-11-20T01:59:30.041Z,91.20
2017-11-20T02:00:30.063Z,91.09
2017-11-20T02:01:30.130Z,90.96
2017-11-20T02:02:30.109Z,90.71
2017-11-20T02:03:30.115Z,90.74
2017-11-20T02:04:30.158Z,90.80
2017-11-20T02:05:30.147Z,90.96
2017-11-20T02:06:30.088Z,90.53
2017-11-20T02:07:30.033Z,90.82
2017-11-20T02:08:30.161Z,90.58
2017-11-20T02:09:30.136Z,90.80
2017-11-20T02:10:30.024Z,90.74
2017-11-20T02:11:30.090Z,90.80
2017-11-20T02:12:30.034Z,90.74
2017-11-20T02:13:30.036Z,90.63
2017-11-20T02:14:30.108Z,90.61
2017-11-20T02:15:30.191Z,90.85
2017-11-20T02:16:30.101Z,90.98
2017-11-20T02:17:30.168Z,91.11
2017-11-20T02:18:30.108Z,91.09
2017-11-20T02:19:30.178Z,91.28
2017-11-20T02:20:30.172Z,91.25
2017-11-20T02:21:30.170Z,91.25
2017-11-20T02:22:30.108Z,91.01
2017-11-20T02:23:30.135Z,91.09
2017-11-20T02:24:30.175Z,91.30
2017-11-20T02:25:30.198Z,91.11
2017-11-20T02:26:30.173Z,91.11
2017-11-20T02:27:30.106Z,91.33
2017-11-20T02:28:30.107Z,91.41
2017-11-20T02:29:30.178Z,91.55
2017-11-20T02:30:30.110Z,91.55
2017-11-20T02:31:30.175Z,91.76
2017-11-20T02:32:30.117Z,91.82
2017-11-20T02:33:30.178Z,91.90
2017-11-20T02:34:30.113Z,91.92
2017-11-20T02:35:30.112Z,92.08
2017-11-20T02:36:30.180Z,92.19
2017-11-20T02:37:30.179Z,92.03
2017-11-20T02:38:30.181Z,92.16
2017-11-20T02:39:30.154Z,92.19
2017-11-20T02:40:30.116Z,92.35
2017-11-20T02:41:30.207Z,92.22
2017-11-20T02:42:30.117Z,92.32
2017-11-20T02:43:30.186Z,92.35
2017-11-20T02:44:30.116Z,92.35
2017-11-20T02:45:30.119Z,92.32
2017-11-20T02:46:30.198Z,92.30
2017-11-20T02:47:30.190Z,92.30
2017-11-20T02:48:30.125Z,92.27
2017-11-20T02:49:30.120Z,92.35
2017-11-20T02:50:30.202Z,92.35
2017-11-20T02:51:30.133Z,92.16
2017-11-20T02:52:30.208Z,92.03
2017-11-20T02:53:30.193Z,92.03
2017-11-20T02:54:30.126Z,91.92
2017-11-20T02:55:30.099Z,91.95
2017-11-20T02:56:30.087Z,91.92
2017-11-20T02:57:30.151Z,92.08
2017-11-20T02:58:30.171Z,92.05
2017-11-20T02:59:30.172Z,92.27
2017-11-20T03:00:30.152Z,92.40
2017-11-20T03:01:30.062Z,92.51
2017-11-20T03:02:30.135Z,92.43
2017-11-20T03:03:30.152Z,92.59
2017-11-20T03:04:30.120Z,92.62
2017-11-20T03:05:30.117Z,92.78
2017-11-20T03:06:30.144Z,92.95
2017-11-20T03:07:30.199Z,92.57
2017-11-20T03:08:30.200Z,92.40
2017-11-20T03:09:30.199Z,92.40
2017-11-20T03:10:30.139Z,92.32
2017-11-20T03:11:30.201Z,92.30
2017-11-20T03:12:30.134Z,92.24
2017-11-20T03:13:30.201Z,92.46
2017-11-20T03:14:30.202Z,92.54
2017-11-20T03:15:30.202Z,92.46
2017-11-20T03:16:30.193Z,92.43
2017-11-20T03:17:30.198Z,92.70
2017-11-20T03:18:30.159Z,92.76
2017-11-20T03:19:30.206Z,92.81
2017-11-20T03:20:30.198Z,92.40
2017-11-20T03:21:30.109Z,92.43
2017-11-20T03:22:30.147Z,92.30
2017-11-20T03:23:30.119Z,92.35
2017-11-20T03:24:30.230Z,92.32
2017-11-20T03:25:30.203Z,92.40
2017-11-20T03:26:30.157Z,92.32
2017-11-20T03:27:30.109Z,92.38
2017-11-20T03:28:30.095Z,92.32
2017-11-20T03:29:30.115Z,92.54
2017-11-20T03:30:30.182Z,92.70
2017-11-20T03:31:30.195Z,92.65
2017-11-20T03:32:30.124Z,92.08
2017-11-20T03:33:30.159Z,92.35
2017-11-20T03:34:30.183Z,92.22
2017-11-20T03:35:30.145Z,92.32
2017-11-20T03:36:30.215Z,92.32
2017-11-20T03:37:30.153Z,92.54
2017-11-20T03:38:30.216Z,92.57
2017-11-20T03:39:30.216Z,92.27
2017-11-20T03:40:30.219Z,92.32
2017-11-20T03:41:30.155Z,92.27
2017-11-20T03:42:30.218Z,92.30
2017-11-20T03:43:30.157Z,92.11
2017-11-20T03:44:30.232Z,92.19
2017-11-20T03:45:30.161Z,92.40
2017-11-20T03:46:30.217Z,92.49
2017-11-20T03:47:30.181Z,92.40
2017-11-20T03:48:30.216Z,92.32
2017-11-20T03:49:30.091Z,92.59
2017-11-20T03:50:30.216Z,92.59
2017-11-20T03:51:30.134Z,92.38
2017-11-20T03:52:30.135Z,92.46
2017-11-20T03:53:30.130Z,92.70
2017-11-20T03:54:30.094Z,92.62
2017-11-20T03:55:30.136Z,92.73
2017-11-20T03:56:30.113Z,92.91
2017-11-20T03:57:30.157Z,93.08
2017-11-20T03:58:30.138Z,93.13
2017-11-20T03:59:30.138Z,93.18
2017-11-20T04:00:30.047Z,93.13
2017-11-20T04:01:30.047Z,93.32
2017-11-20T04:02:30.108Z,93.16
2017-11-20T04:03:30.158Z,93.16
2017-11-20T04:04:30.090Z,93.29
2017-11-20T04:05:30.064Z,93.29
2017-11-20T04:06:30.167Z,93.18
2017-11-20T04:07:30.234Z,93.24
2017-11-20T04:08:30.170Z,93.35
2017-11-20T04:09:30.237Z,93.48
2017-11-20T04:10:30.169Z,93.21
2017-11-20T04:11:30.243Z,93.10
2017-11-20T04:12:30.168Z,93.26
2017-11-20T04:13:30.259Z,93.21
2017-11-20T04:14:30.239Z,92.97
2017-11-20T04:15:30.240Z,93.10
2017-11-20T04:16:30.185Z,93.10
2017-11-20T04:17:30.241Z,93.18
2017-11-20T04:18:30.170Z,93.24
2017-11-20T04:19:30.242Z,93.10
2017-11-20T04:20:30.177Z,93.13
2017-11-20T04:21:30.244Z,93.08
2017-11-20T04:22:30.215Z,93.21
2017-11-20T04:23:30.204Z,93.29
2017-11-20T04:24:30.183Z,93.32
2017-11-20T04:25:30.246Z,93.16
2017-11-20T04:26:30.209Z,93.24
2017-11-20T04:27:30.245Z,93.18
2017-11-20T04:28:30.248Z,93.13
2017-11-20T04:29:30.182Z,93.24
2017-11-20T04:30:30.249Z,93.35
2017-11-20T04:31:30.249Z,93.45
2017-11-20T04:32:30.187Z,93.37
2017-11-20T04:33:30.250Z,93.37
2017-11-20T04:34:30.250Z,93.18
2017-11-20T04:35:30.182Z,93.35
2017-11-20T04:36:30.159Z,93.45
2017-11-20T04:37:30.155Z,93.35
2017-11-20T04:38:30.241Z,93.72
2017-11-20T04:39:30.129Z,93.91
2017-11-20T04:40:30.166Z,93.91
2017-11-20T04:41:30.253Z,94.34
2017-11-20T04:42:30.207Z,94.67
2017-11-20T04:43:30.244Z,94.61
2017-11-20T04:44:30.163Z,94.53
2017-11-20T04:45:30.135Z,94.69
2017-11-20T04:46:30.157Z,94.96
2017-11-20T04:47:30.179Z,95.18
2017-11-20T04:48:30.244Z,95.34
2017-11-20T04:49:30.188Z,95.47
2017-11-20T04:50:30.187Z,95.58
2017-11-20T04:51:30.221Z,95.75
2017-11-20T04:52:30.123Z,96.07
2017-11-20T04:53:30.185Z,96.20
2017-11-20T04:54:30.126Z,95.72
2017-11-20T04:55:30.217Z,95.45
2017-11-20T04:56:30.201Z,95.56
2017-11-20T04:57:30.266Z,95.56
2017-11-20T04:58:30.214Z,95.53
2017-11-20T04:59:30.270Z,95.37
2017-11-20T05:00:30.204Z,95.37
2017-11-20T05:01:30.267Z,95.50
2017-11-20T05:02:30.203Z,95.56
2017-11-20T05:03:30.270Z,95.58
2017-11-20T05:04:30.202Z,95.45
2017-11-20T05:05:30.204Z,95.34
2017-11-20T05:06:30.269Z,95.34
2017-11-20T05:07:30.211Z,95.58
2017-11-20T05:08:30.272Z,95.61
2017-11-20T05:09:30.205Z,95.61
2017-11-20T05:10:30.235Z,95.64
2017-11-20T05:11:30.215Z,95.69
2017-11-20T05:12:30.278Z,95.85
2017-11-20T05:13:30.275Z,95.83
2017-11-20T05:14:30.207Z,95.83
2017-11-20T05:15:30.275Z,95.53
2017-11-20T05:16:30.342Z,95.47
2017-11-20T05:17:30.278Z,95.56
2017-11-20T05:18:30.209Z,95.53
2017-11-20T05:19:30.210Z,95.53
2017-11-20T05:20:30.284Z,95.45
2017-11-20T05:21:30.213Z,95.42
2017-11-20T05:22:30.213Z,95.42
2017-11-20T05:23:30.280Z,95.53
2017-11-20T05:24:30.216Z,95.50
2017-11-20T05:25:30.281Z,95.64
2017-11-20T05:26:30.181Z,95.75
2017-11-20T05:27:30.218Z,95.66
2017-11-20T05:28:30.172Z,95.28
2017-11-20T05:29:30.215Z,95.18
2017-11-20T05:30:30.250Z,95.31
2017-11-20T05:31:30.241Z,95.50
2017-11-20T05:32:30.245Z,95.34
2017-11-20T05:33:30.187Z,95.45
2017-11-20T05:34:30.178Z,95.56
2017-11-20T05:35:30.280Z,95.61
2017-11-20T05:36:30.306Z,95.75
2017-11-20T05:37:30.226Z,95.88
2017-11-20T05:38:30.312Z,95.88
2017-11-20T05:39:30.289Z,95.96
2017-11-20T05:40:30.226Z,96.13
2017-11-20T05:41:30.290Z,96.28
2017-11-20T05:42:30.224Z,96.36
2017-11-20T05:43:30.293Z,96.58
2017-11-20T05:44:30.244Z,96.66
2017-11-20T05:45:30.294Z,96.96
2017-11-20T05:46:30.295Z,97.39
2017-11-20T05:47:30.228Z,97.61
2017-11-20T05:48:30.295Z,97.64
2017-11-20T05:49:30.295Z,97.74
2017-11-20T05:50:30.297Z,97.80
2017-11-20T05:51:30.232Z,97.74
2017-11-20T05:52:30.234Z,97.93
2017-11-20T05:53:30.298Z,97.83
2017-11-20T05:54:30.300Z,97.85
2017-11-20T05:55:30.301Z,97.80
2017-11-20T05:56:30.209Z,97.80
2017-11-20T05:57:30.288Z,97.91
2017-11-20T05:58:30.221Z,97.74
2017-11-20T05:59:30.231Z,97.88
2017-11-20T06:00:30.292Z,98.07
2017-11-20T06:01:30.300Z,98.21
2017-11-20T06:02:30.258Z,98.29
2017-11-20T06:03:30.208Z,98.40
2017-11-20T06:04:30.240Z,98.26
2017-11-20T06:05:30.262Z,98.29
2017-11-20T06:06:30.306Z,98.29
2017-11-20T06:07:30.242Z,98.02
2017-11-20T06:08:30.306Z,97.88
2017-11-20T06:09:30.310Z,98.02
2017-11-20T06:10:30.249Z,98.26
2017-11-20T06:11:30.310Z,98.18
2017-11-20T06:13:30.271Z,97.83
2017-11-20T06:14:30.320Z,97.69
2017-11-20T06:15:30.247Z,97.31
2017-11-20T06:16:30.243Z,97.18
2017-11-20T06:17:30.221Z,96.88
2017-11-20T06:18:30.221Z,96.85
2017-11-20T06:19:30.306Z,96.88
2017-11-20T06:20:30.302Z,96.99
2017-11-20T06:21:30.268Z,96.93
2017-11-20T06:22:30.304Z,97.26
2017-11-20T06:23:30.192Z,97.45
2017-11-20T06:24:30.313Z,97.53
2017-11-20T06:25:30.225Z,97.74
2017-11-20T06:26:30.317Z,97.77
2017-11-20T06:27:30.272Z,97.80
2017-11-20T06:28:30.319Z,97.72
2017-11-20T06:29:30.258Z,97.77
2017-11-20T06:30:30.320Z,97.66
2017-11-20T06:31:30.321Z,97.80
2017-11-20T06:32:30.259Z,97.91
2017-11-20T06:33:30.322Z,97.91
2017-11-20T06:34:30.325Z,98.12
2017-11-20T06:35:30.258Z,98.23
2017-11-20T06:36:30.320Z,98.23
2017-11-20T06:37:30.348Z,98.34
2017-11-20T06:38:30.297Z,98.45
2017-11-20T06:39:30.252Z,98.59
2017-11-20T06:40:30.232Z,98.61
2017-11-20T06:41:30.315Z,98.64
2017-11-20T06:42:30.231Z,98.53
2017-11-20T06:43:30.238Z,98.26
2017-11-20T06:44:30.250Z,98.21
2017-11-20T06:45:30.323Z,98.23
2017-11-20T06:46:30.270Z,98.10
2017-11-20T06:47:30.269Z,98.18
2017-11-20T06:48:30.266Z,98.10
2017-11-20T06:49:30.360Z,98.15
2017-11-20T06:50:30.352Z,98.12
2017-11-20T06:51:30.347Z,98.07
2017-11-20T06:52:30.337Z,97.93
2017-11-20T06:53:30.346Z,97.66
2017-11-20T06:54:30.355Z,97.50
2017-11-20T06:55:30.284Z,97.28
2017-11-20T06:56:30.239Z,97.18
2017-11-20T06:57:30.314Z,97.12
2017-11-20T06:58:30.427Z,96.83
2017-11-20T06:59:30.328Z,96.64
2017-11-20T07:00:30.247Z,96.80
2017-11-20T07:01:30.303Z,96.74
2017-11-20T07:02:30.208Z,96.83
2017-11-20T07:03:30.291Z,96.66
2017-11-20T07:04:30.378Z,96.50
2017-11-20T07:05:30.307Z,96.58
2017-11-20T07:06:30.346Z,96.50
2017-11-20T07:07:30.352Z,96.53
2017-11-20T07:08:30.346Z,96.53
2017-11-20T07:09:30.357Z,96.23
2017-11-20T07:10:30.297Z,95.94
2017-11-20T07:11:30.347Z,95.96
2017-11-20T07:12:30.278Z,95.85
2017-11-20T07:13:30.380Z,95.80
2017-11-20T07:14:30.346Z,96.02
2017-11-20T07:15:30.290Z,95.64
2017-11-20T07:16:30.330Z,95.23
2017-11-20T07:17:30.258Z,94.96
2017-11-20T07:18:30.254Z,94.83
2017-11-20T07:19:30.340Z,94.40
2017-11-20T07:20:30.301Z,94.29
2017-11-20T07:21:30.314Z,94.56
2017-11-20T07:22:30.218Z,94.29
2017-11-20T07:23:30.287Z,94.42
2017-11-20T07:24:30.283Z,94.56
2017-11-20T07:25:30.236Z,94.93
2017-11-20T07:26:30.370Z,95.26
2017-11-20T07:27:30.296Z,95.45
2017-11-20T07:28:30.355Z,95.75
2017-11-20T07:29:30.307Z,96.02
2017-11-20T07:30:30.372Z,96.13
2017-11-20T07:31:30.370Z,96.15
2017-11-20T07:32:30.285Z,96.20
2017-11-20T07:33:30.307Z,96.26
2017-11-20T07:34:30.308Z,96.31
2017-11-20T07:35:30.374Z,96.42
2017-11-20T07:36:30.313Z,96.26
2017-11-20T07:37:30.317Z,96.36
2017-11-20T07:38:30.308Z,96.53
2017-11-20T07:39:30.388Z,96.61
2017-11-20T07:40:30.314Z,96.42
2017-11-20T07:41:30.337Z,96.53
2017-11-20T07:42:30.309Z,96.74
2017-11-20T07:43:30.364Z,96.93
2017-11-20T07:44:30.377Z,96.80
2017-11-20T07:45:30.306Z,96.83
2017-11-20T07:46:30.380Z,97.07
2017-11-20T07:47:30.301Z,97.23
2017-11-20T07:48:30.383Z,97.26
2017-11-20T07:49:30.313Z,97.12
2017-11-20T07:50:30.384Z,97.04
2017-11-20T07:51:30.299Z,96.88
2017-11-20T07:52:30.377Z,96.55
2017-11-20T07:53:30.317Z,96.55
2017-11-20T07:54:30.323Z,96.34
2017-11-20T07:55:30.419Z,95.64
2017-11-20T07:56:30.306Z,95.69
2017-11-20T07:57:30.386Z,96.13
2017-11-20T07:58:30.315Z,96.26
2017-11-20T07:59:30.389Z,96.66
2017-11-20T08:00:30.318Z,96.72
2017-11-20T08:01:30.378Z,96.91
2017-11-20T08:02:30.323Z,96.74
2017-11-20T08:03:30.396Z,96.20
2017-11-20T08:04:30.390Z,95.66
2017-11-20T08:05:30.323Z,95.64
2017-11-20T08:06:30.323Z,96.02
2017-11-20T08:07:30.394Z,96.13
2017-11-20T08:08:30.319Z,96.31
2017-11-20T08:09:30.419Z,96.42
2017-11-20T08:10:30.452Z,96.58
2017-11-20T08:11:30.381Z,96.72
2017-11-20T08:12:30.370Z,96.91
2017-11-20T08:13:30.394Z,97.07
2017-11-20T08:14:30.330Z,96.93
2017-11-20T08:15:30.382Z,96.83
2017-11-20T08:16:30.328Z,96.53
2017-11-20T08:17:30.403Z,96.17
2017-11-20T08:18:30.395Z,96.04
2017-11-20T08:19:30.333Z,96.17
2017-11-20T08:20:30.340Z,96.47
2017-11-20T08:21:30.399Z,96.88
2017-11-20T08:22:30.368Z,96.93
2017-11-20T08:23:30.405Z,96.55
2017-11-20T08:24:30.328Z,96.42
2017-11-20T08:25:30.338Z,96.53
2017-11-20T08:26:30.342Z,96.53
2017-11-20T08:27:30.312Z,96.53
2017-11-20T08:28:30.306Z,96.55
2017-11-20T08:29:30.493Z,96.66
2017-11-20T08:30:30.475Z,96.64
2017-11-20T08:31:30.495Z,96.77
2017-11-20T08:32:30.273Z,96.66
2017-11-20T08:33:30.394Z,96.66
2017-11-20T08:34:30.392Z,96.39
2017-11-20T08:35:30.397Z,96.13
2017-11-20T08:36:30.407Z,96.02
2017-11-20T08:37:30.355Z,96.09
2017-11-20T08:38:30.401Z,96.13
2017-11-20T08:39:30.350Z,96.26
2017-11-20T08:40:30.412Z,96.28
2017-11-20T08:41:30.352Z,96.31
2017-11-20T08:42:30.414Z,96.42
2017-11-20T08:43:30.345Z,96.23
2017-11-20T08:44:30.347Z,95.64
2017-11-20T08:45:30.415Z,95.34
2017-11-20T08:46:30.360Z,95.26
2017-11-20T08:47:30.351Z,95.31
2017-11-20T08:48:30.413Z,95.12
2017-11-20T08:49:30.338Z,94.83
2017-11-20T08:50:30.402Z,94.69
2017-11-20T08:51:30.419Z,94.80
2017-11-20T08:52:30.381Z,94.42
2017-11-20T08:53:30.403Z,94.26
2017-11-20T08:54:30.406Z,93.78
2017-11-20T08:55:30.355Z,93.72
2017-11-20T08:56:30.415Z,93.89
2017-11-20T08:57:30.342Z,94.02
2017-11-20T08:58:30.411Z,94.07
2017-11-20T08:59:30.339Z,94.02
2017-11-20T09:00:30.409Z,93.85
2017-11-20T09:01:30.343Z,93.62
2017-11-20T09:02:30.422Z,93.48
2017-11-20T09:03:30.410Z,93.32
2017-11-20T09:04:30.346Z,93.43
2017-11-20T09:05:30.414Z,93.83
2017-11-20T09:06:30.340Z,93.89
2017-11-20T09:07:30.415Z,93.48
2017-11-20T09:08:30.391Z,93.29
2017-11-20T09:09:30.388Z,92.91
2017-11-20T09:10:30.414Z,92.95
2017-11-20T09:11:30.340Z,92.16
2017-11-20T09:12:30.419Z,92.27
2017-11-20T09:13:30.416Z,92.01
2017-11-20T09:14:30.348Z,92.43
2017-11-20T09:15:30.417Z,91.79
2017-11-20T09:16:30.342Z,91.47
2017-11-20T09:17:30.316Z,90.71
2017-11-20T09:18:30.327Z,90.02
2017-11-20T09:19:30.410Z,90.80
2017-11-20T09:20:30.419Z,90.20
2017-11-20T09:21:30.411Z,90.80
2017-11-20T09:22:30.410Z,90.45
2017-11-20T09:23:30.328Z,90.39
2017-11-20T09:24:30.369Z,90.80
2017-11-20T09:25:30.347Z,90.28
2017-11-20T09:26:30.303Z,89.94
2017-11-20T09:27:30.351Z,89.67
2017-11-20T09:28:30.311Z,90.02
2017-11-20T09:29:30.412Z,90.80
2017-11-20T09:30:30.347Z,88.84
2017-11-20T09:31:30.340Z,87.82
2017-11-20T09:32:30.380Z,87.08
2017-11-20T09:33:30.377Z,85.03
2017-11-20T09:34:30.350Z,84.60
2017-11-20T09:35:30.420Z,84.31
2017-11-20T09:36:30.332Z,84.87
2017-11-20T09:37:30.430Z,84.76
2017-11-20T09:38:30.442Z,85.16
2017-11-20T09:39:30.420Z,85.88
2017-11-20T09:40:30.432Z,85.11
2017-11-20T09:41:30.381Z,83.49
2017-11-20T09:42:30.315Z,83.75
2017-11-20T09:43:30.334Z,84.05
2017-11-20T09:44:30.432Z,84.17
2017-11-20T09:45:30.437Z,84.36
2017-11-20T09:46:30.371Z,84.81
2017-11-20T09:47:30.437Z,85.61
2017-11-20T09:48:30.373Z,85.99
2017-11-20T09:49:30.440Z,85.58
2017-11-20T09:50:30.367Z,85.21
2017-11-20T09:51:30.439Z,85.00
2017-11-20T09:52:30.369Z,84.89
2017-11-20T09:53:30.440Z,85.99
2017-11-20T09:54:30.442Z,86.22
2017-11-20T09:55:30.375Z,85.75
2017-11-20T09:57:30.375Z,85.03
2017-11-20T09:58:30.444Z,85.08
2017-11-20T09:59:30.417Z,85.72
2017-11-20T10:00:30.447Z,86.25
2017-11-20T10:01:30.380Z,86.25
2017-11-20T10:02:30.380Z,86.52
2017-11-20T10:03:30.456Z,86.52
2017-11-20T10:04:30.380Z,85.99
2017-11-20T10:05:30.332Z,86.22
2017-11-20T10:06:30.377Z,86.84
2017-11-20T10:07:30.356Z,86.20
2017-11-20T10:08:30.361Z,86.79
2017-11-20T10:09:30.312Z,87.51
2017-11-20T10:10:30.354Z,87.37
2017-11-20T10:11:30.311Z,87.74
2017-11-20T10:12:30.412Z,87.85
2017-11-20T10:13:30.418Z,88.46
2017-11-20T10:14:30.399Z,87.74
2017-11-20T10:15:30.383Z,89.43
2017-11-20T10:16:30.430Z,88.97
2017-11-20T10:17:30.354Z,88.62
2017-11-20T10:18:30.443Z,89.08
2017-11-20T10:19:30.399Z,89.64
2017-11-20T10:20:30.368Z,89.16
2017-11-20T10:21:30.336Z,89.19
2017-11-20T10:22:30.423Z,89.88
2017-11-20T10:23:30.360Z,89.22
2017-11-20T10:24:30.397Z,88.60
2017-11-20T10:25:30.364Z,88.33
2017-11-20T10:26:30.386Z,89.16
2017-11-20T10:27:30.462Z,89.45
2017-11-20T10:28:30.398Z,89.27
2017-11-20T10:29:30.462Z,89.78
2017-11-20T10:30:30.393Z,89.45
2017-11-20T10:31:30.466Z,88.46
2017-11-20T10:32:30.471Z,89.03
2017-11-20T10:33:30.395Z,89.54
2017-11-20T10:34:30.464Z,89.56
2017-11-20T10:35:30.444Z,90.28
2017-11-20T10:36:30.469Z,89.97
2017-11-20T10:37:30.439Z,89.43
2017-11-20T10:38:30.466Z,89.83
2017-11-20T10:39:30.404Z,90.09
2017-11-20T10:40:30.404Z,89.94
2017-11-20T10:41:30.469Z,89.00
2017-11-20T10:42:30.478Z,89.11
2017-11-20T10:43:30.403Z,88.89
2017-11-20T10:44:30.473Z,89.80
2017-11-20T10:45:30.473Z,89.67
2017-11-20T10:46:30.440Z,89.00
2017-11-20T10:47:30.478Z,89.00
2017-11-20T10:48:30.401Z,88.87
2017-11-20T10:49:30.513Z,88.76
2017-11-20T10:50:30.399Z,88.89
2017-11-20T10:51:30.475Z,89.06
2017-11-20T10:52:30.399Z,88.92
2017-11-20T10:53:30.476Z,89.03
2017-11-20T10:54:30.476Z,88.68
2017-11-20T10:55:30.409Z,88.39
2017-11-20T10:56:30.481Z,87.80
2017-11-20T10:57:30.442Z,88.04
2017-11-20T10:58:30.355Z,88.39
2017-11-20T10:59:30.381Z,87.96
2017-11-20T11:00:30.425Z,88.46
2017-11-20T11:01:30.412Z,89.48
2017-11-20T11:02:30.354Z,88.09
2017-11-20T11:03:30.424Z,88.73
2017-11-20T11:04:30.383Z,89.37
2017-11-20T11:05:30.477Z,89.54
2017-11-20T11:06:30.344Z,88.65
2017-11-20T11:07:30.413Z,87.51
2017-11-20T11:08:30.486Z,87.72
2017-11-20T11:09:30.415Z,88.65
2017-11-20T11:10:30.489Z,88.23
2017-11-20T11:11:30.433Z,88.60
2017-11-20T11:12:30.489Z,87.96
2017-11-20T11:13:30.487Z,88.17
2017-11-20T11:14:30.424Z,89.24
2017-11-20T11:15:30.489Z,87.77
2017-11-20T11:16:30.420Z,87.72
2017-11-20T11:17:30.341Z,86.89
2017-11-20T11:18:30.384Z,87.21
2017-11-20T11:19:30.344Z,86.73
2017-11-20T11:20:30.385Z,86.73
2017-11-20T11:21:30.326Z,86.81
2017-11-20T11:22:30.435Z,87.43
2017-11-20T11:23:30.389Z,87.26
2017-11-20T11:24:30.438Z,87.26
2017-11-20T11:25:30.438Z,87.43
2017-11-20T11:26:30.439Z,86.87
2017-11-20T11:27:30.383Z,87.08
2017-11-20T11:28:30.436Z,88.07
2017-11-20T11:29:30.427Z,88.60
2017-11-20T11:30:30.366Z,87.93
2017-11-20T11:31:30.461Z,87.64
2017-11-20T11:32:30.446Z,87.77
2017-11-20T11:33:30.433Z,87.45
2017-11-20T11:34:30.401Z,87.08
2017-11-20T11:35:30.427Z,86.12
2017-11-20T11:36:30.435Z,85.85
2017-11-20T11:37:30.510Z,86.49
2017-11-20T11:38:30.444Z,87.24
2017-11-20T11:39:30.530Z,86.33
2017-11-20T11:40:30.507Z,86.57
2017-11-20T11:41:30.438Z,87.64
2017-11-20T11:42:30.546Z,86.52
2017-11-20T11:43:30.435Z,86.79
2017-11-20T11:44:30.510Z,87.08
2017-11-20T11:45:30.443Z,86.79
2017-11-20T11:46:30.509Z,87.64
2017-11-20T11:47:30.467Z,87.90
2017-11-20T11:48:30.432Z,87.10
2017-11-20T11:49:30.405Z,86.63
2017-11-20T11:50:30.395Z,87.45
2017-11-20T11:51:30.401Z,88.46
2017-11-20T11:52:30.492Z,88.39
2017-11-20T11:53:30.470Z,87.48
2017-11-20T11:54:30.457Z,88.41
2017-11-20T11:55:30.462Z,88.68
2017-11-20T11:56:30.442Z,88.50
2017-11-20T11:57:30.516Z,87.51
2017-11-20T11:58:30.446Z,87.59
2017-11-20T11:59:30.515Z,88.07
2017-11-20T12:00:30.456Z,88.23
2017-11-20T12:01:30.518Z,87.93
2017-11-20T12:02:30.448Z,88.68
2017-11-20T12:03:30.521Z,88.89
2017-11-20T12:04:30.450Z,89.27
2017-11-20T12:05:30.520Z,87.96
2017-11-20T12:06:30.462Z,87.34
2017-11-20T12:07:30.523Z,87.24
2017-11-20T12:08:30.450Z,86.89
2017-11-20T12:09:30.524Z,87.64
2017-11-20T12:10:30.453Z,88.23
2017-11-20T12:11:30.523Z,88.23
2017-11-20T12:12:30.453Z,87.98
2017-11-20T12:13:30.524Z,87.64
2017-11-20T12:14:30.459Z,87.98
2017-11-20T12:15:30.525Z,88.79
2017-11-20T12:16:30.508Z,89.03
2017-11-20T12:17:30.459Z,87.74
2017-11-20T12:18:30.529Z,88.60
2017-11-20T12:19:30.459Z,87.93
2017-11-20T12:20:30.462Z,87.74
2017-11-20T12:21:30.530Z,87.24
2017-11-20T12:22:30.460Z,88.41
2017-11-20T12:23:30.530Z,89.22
2017-11-20T12:24:30.466Z,88.62
2017-11-20T12:25:30.532Z,89.24
2017-11-20T12:26:30.463Z,89.59
2017-11-20T12:27:30.498Z,89.27
2017-11-20T12:28:30.460Z,89.14
2017-11-20T12:29:30.424Z,89.24
2017-11-20T12:30:30.536Z,89.75
2017-11-20T12:31:30.506Z,89.78
2017-11-20T12:32:30.536Z,90.42
2017-11-20T12:33:30.461Z,89.99
2017-11-20T12:34:30.533Z,90.02
2017-11-20T12:35:30.441Z,89.19
2017-11-20T12:36:30.479Z,90.20
2017-11-20T12:37:30.417Z,90.42
2017-11-20T12:38:30.483Z,89.67
2017-11-20T12:39:30.505Z,89.45
2017-11-20T12:40:30.504Z,90.15
2017-11-20T12:41:30.507Z,90.93
2017-11-20T12:42:30.513Z,90.07
2017-11-20T12:43:30.508Z,90.20
2017-11-20T12:44:30.511Z,88.01
2017-11-20T12:45:30.471Z,88.01
2017-11-20T12:46:30.505Z,88.50
2017-11-20T12:47:30.477Z,88.17
2017-11-20T12:48:30.546Z,88.28
2017-11-20T12:49:30.480Z,88.84
2017-11-20T12:50:30.545Z,89.00
2017-11-20T12:51:30.549Z,89.06
2017-11-20T12:52:30.488Z,89.67
2017-11-20T12:53:30.549Z,89.88
2017-11-20T12:54:30.482Z,89.75